This is the latest recevied packets stored in our database for station/object ETSI. If no packets are shown the sender has not sent any packets the latest 24 hours.

If you compare the raw packets with similar data from other websites it may differ (especially the path), the reason is that we are not collecting packets from the same APRS-IS servers. Each APRS-IS server performes duplicate filtering, and which packet that is considered to be a duplicate may differ depending on which APRS-IS server you receive your data from.

1591376783: DK6PX>APRS,TCPIP*,qAC,T2GB:;ETSI *050218z4842.90N/01132.25E^ ETSI 051620Z AUTO 25012G22KT 8000 // ////// 16/08 Q1000 ///

1591380385: DK6PX>APRS,TCPIP*,qAC,T2FEJER:;ETSI *050218z4842.90N/01132.25E^ ETSI 051720Z AUTO 25012KT 8000 // ////// 16/08 Q1001 ///

1591383984: DK6PX>APRS,TCPIP*,qAC,T2EISBERG:;ETSI *050218z4842.90N/01132.25E^ ETSI 051820Z AUTO 25014G24KT 8000 // ////// 16/07 Q1001 ///

1591387585: DK6PX>APRS,TCPIP*,qAC,T2GREECE:;ETSI *050218z4842.90N/01132.25E^ ETSI 051920Z AUTO 25010G21KT 8000 // ////// 15/07 Q1001 ///

1591391187: DK6PX>APRS,TCPIP*,qAC,T2SWEDEN:;ETSI *050218z4842.90N/01132.25E^ ETSI 052020Z AUTO 25014KT 7000 // ////// 14/07 Q1002 ///

1591394784: DK6PX>APRS,TCPIP*,qAC,T2ROMANIA:;ETSI *050218z4842.90N/01132.25E^ ETSI 052120Z AUTO 25011KT 7000 // ////// 14/07 Q1002 ///

1591398385: DK6PX>APRS,TCPIP*,qAC,T2UKRAINE:;ETSI *050218z4842.90N/01132.25E^ ETSI 052220Z AUTO 25011KT 8000 // ////// 14/08 Q1003 ///

1591401984: DK6PX>APRS,TCPIP*,qAC,T2STRAS:;ETSI *050218z4842.90N/01132.25E^ ETSI 052320Z AUTO 25005KT 7000 // ////// 14/08 Q1003 ///

1591405583: DK6PX>APRS,TCPIP*,qAC,T2UK:;ETSI *050218z4842.90N/01132.25E^ ETSI 060020Z AUTO 34007KT 7000 // ////// 13/09 Q1004 ///

1591409184: DK6PX>APRS,TCPIP*,qAC,T2POLC:;ETSI *050218z4842.90N/01132.25E^ ETSI 060120Z AUTO VRB02KT 8000 // ////// 12/10 Q1004 ///

1591412784: DK6PX>APRS,TCPIP*,qAC,T2KA:;ETSI *050218z4842.90N/01132.25E^ ETSI 060220Z AUTO 15001KT 4200 // ////// 12/10 Q1003 ///

1591416385: DK6PX>APRS,TCPIP*,qAC,T2ROMANIA:;ETSI *050218z4842.90N/01132.25E^ ETSI 060320Z AUTO VRB01KT 8000 // ////// 12/11 Q1003 ///

1591419985: DK6PX>APRS,TCPIP*,qAC,T2FFL:;ETSI *050218z4842.90N/01132.25E^ ETSI 060420Z AUTO VRB02KT 8000 // ////// 12/11 Q1003 ///

1591423585: DK6PX>APRS,TCPIP*,qAC,T2FFL:;ETSI *050218z4842.90N/01132.25E^ ETSI 060520Z 20004KT 9999 FEW005 BKN032 BKN050 13/11 Q1003 BLU

1591427188: DK6PX>APRS,TCPIP*,qAC,T2NUERNBG:;ETSI *050218z4842.90N/01132.25E^ ETSI 060620Z 25005KT 9999 FEW005 SCT030 BKN060 16/12 Q1004 BLU

1591430784: DK6PX>APRS,TCPIP*,qAC,T2TRAC:;ETSI *050218z4842.90N/01132.25E^ ETSI 060720Z 24007KT 9999 FEW010 BKN060 BKN130 16/11 Q1004 BLU

1591434386: DK6PX>APRS,TCPIP*,qAC,T2FRA:;ETSI *050218z4842.90N/01132.25E^ ETSI 060820Z 25010KT 9999 FEW012 SCT060 BKN100 18/10 Q1004 BLU

1591437984: DK6PX>APRS,TCPIP*,qAC,T2PRT:;ETSI *050218z4842.90N/01132.25E^ ETSI 060920Z AUTO 26006KT 3200 // ////// 17/12 Q1004 ///

1591441586: DK6PX>APRS,TCPIP*,qAC,T2EUSKADI:;ETSI *050218z4842.90N/01132.25E^ ETSI 061020Z AUTO 22007G17KT 7000 // ////// 17/13 Q1005 ///

1591445184: DK6PX>APRS,TCPIP*,qAC,T2ROMANIA:;ETSI *050218z4842.90N/01132.25E^ ETSI 061120Z 34010KT 9999 FEW015 SCT026 BKN080 17/12 Q1005 BLU

1591448783: DK6PX>APRS,TCPIP*,qAC,T2CSNGRAD:;ETSI *050218z4842.90N/01132.25E^ ETSI 061220Z 35007KT 9999 FEW025 BKN110 17/10 Q1005 BLU

1591452383: DK6PX>APRS,TCPIP*,qAC,T2KA:;ETSI *050218z4842.90N/01132.25E^ ETSI 061320Z AUTO 36008KT 8000 // ////// 16/10 Q1006 ///

1591455985: DK6PX>APRS,TCPIP*,qAC,T2EUSKADI:;ETSI *050218z4842.90N/01132.25E^ ETSI 061420Z AUTO 35006KT 8000 // ////// 16/11 Q1006 ///

1591459586: DK6PX>APRS,TCPIP*,qAC,T2FFL:;ETSI *050218z4842.90N/01132.25E^ ETSI 061520Z AUTO 03007KT 9000 // ////// 17/11 Q1006 ///

Initial position
Current position
Ruler